Time;durP1;ratioP1;P1;durP2;ratioP2;P2;SDS_P1;SDS_P2;PMS_P1;PMS_P2;Temp;Humidity;BMP_temperature;BMP_pressure;BME280_temperature;BME280_humidity;BME280_pressure;Samples;Min_cycle;Max_cycle;Signal;HPM_P1;HPM_P2
2021/10/18 00:00:07;;;;;;;15.50;11.37;;;10.90;98.00;;;;;;5010754;28;20049;-78
2021/10/18 00:02:52;;;;;;;15.93;9.95;;;10.80;98.10;;;;;;5011038;28;20036;-79
2021/10/18 00:05:36;;;;;;;15.65;10.43;;;10.80;98.00;;;;;;5010046;28;20117;-80
2021/10/18 00:08:21;;;;;;;13.73;9.65;;;10.80;98.20;;;;;;5009893;28;20099;-79
2021/10/18 00:11:05;;;;;;;15.75;9.88;;;10.80;98.40;;;;;;4993909;28;20037;-79
2021/10/18 00:13:50;;;;;;;13.57;9.95;;;10.80;99.00;;;;;;5022329;28;20040;-80
2021/10/18 00:16:38;;;;;;;12.70;10.02;;;10.80;99.40;;;;;;5010823;28;20069;-81
2021/10/18 00:19:23;;;;;;;14.02;10.55;;;10.80;99.60;;;;;;5011290;28;20033;-80
2021/10/18 00:22:07;;;;;;;12.30;10.70;;;10.80;99.70;;;;;;5013059;28;20063;-79
2021/10/18 00:24:51;;;;;;;15.10;10.20;;;10.70;99.60;;;;;;5014141;28;20061;-79
2021/10/18 00:27:36;;;;;;;13.07;10.25;;;10.70;98.70;;;;;;5009814;28;20098;-81
2021/10/18 00:30:20;;;;;;;13.68;10.75;;;10.70;98.50;;;;;;4995637;28;20540;-79
2021/10/18 00:33:04;;;;;;;16.40;10.02;;;10.60;98.40;;;;;;5018167;28;20080;-78
2021/10/18 00:35:49;;;;;;;20.02;10.38;;;10.50;98.80;;;;;;5008825;28;20040;-79
2021/10/18 00:38:33;;;;;;;14.27;10.25;;;10.40;98.90;;;;;;5002358;28;20073;-79
2021/10/18 00:41:17;;;;;;;15.75;10.88;;;10.50;98.90;;;;;;4989408;28;20045;-79
2021/10/18 00:44:02;;;;;;;14.43;10.07;;;10.40;99.10;;;;;;4973292;28;20417;-80
2021/10/18 00:46:46;;;;;;;19.77;10.30;;;10.50;98.90;;;;;;4987634;28;20053;-79
2021/10/18 00:49:31;;;;;;;14.45;9.93;;;10.40;99.20;;;;;;4960196;28;20409;-80
2021/10/18 00:52:17;;;;;;;21.63;10.55;;;10.40;99.20;;;;;;4988495;28;20046;-79
2021/10/18 00:55:03;;;;;;;13.35;10.00;;;10.30;99.10;;;;;;4987350;28;20118;-79
2021/10/18 00:57:50;;;;;;;16.15;10.80;;;10.30;99.20;;;;;;4988845;28;20089;-81
2021/10/18 01:00:35;;;;;;;15.05;10.90;;;10.30;99.60;;;;;;4990224;28;20092;-80
2021/10/18 01:03:19;;;;;;;11.98;10.10;;;10.30;99.40;;;;;;4987663;28;20037;-81
2021/10/18 01:06:04;;;;;;;17.10;10.80;;;10.30;99.40;;;;;;4976094;28;20041;-81
2021/10/18 01:08:48;;;;;;;13.73;10.77;;;10.50;99.30;;;;;;4976623;28;20057;-81
2021/10/18 01:11:33;;;;;;;15.32;10.43;;;10.50;99.20;;;;;;5003028;28;20681;-80
2021/10/18 01:14:17;;;;;;;13.37;10.03;;;10.50;99.20;;;;;;4987446;28;20045;-80
2021/10/18 01:17:01;;;;;;;19.80;10.90;;;10.50;99.00;;;;;;5002611;28;20120;-80
2021/10/18 01:19:48;;;;;;;15.90;10.50;;;10.50;98.80;;;;;;4975310;28;20045;-80
2021/10/18 01:22:32;;;;;;;15.82;10.95;;;10.50;99.00;;;;;;4991080;28;20049;-81
2021/10/18 01:25:16;;;;;;;15.50;10.13;;;10.50;98.60;;;;;;4991831;28;20037;-79
2021/10/18 01:28:01;;;;;;;15.55;10.02;;;10.40;98.90;;;;;;4991956;28;20041;-81
2021/10/18 01:30:45;;;;;;;12.82;9.68;;;10.40;98.70;;;;;;4978148;28;20453;-80
2021/10/18 01:33:30;;;;;;;13.05;9.52;;;10.30;99.10;;;;;;4992687;28;20045;-79
2021/10/18 01:36:14;;;;;;;14.52;10.00;;;10.20;99.00;;;;;;5008431;28;20107;-77
2021/10/18 01:38:59;;;;;;;14.98;10.60;;;10.30;99.00;;;;;;4992441;28;20393;-78
2021/10/18 01:41:43;;;;;;;12.30;9.75;;;10.30;98.90;;;;;;4979632;28;20042;-78
2021/10/18 01:44:28;;;;;;;17.65;9.93;;;10.30;98.80;;;;;;5007582;28;20045;-78
2021/10/18 01:47:11;;;;;;;16.27;9.98;;;10.20;98.90;;;;;;5006438;28;20041;-80
2021/10/18 01:49:56;;;;;;;13.50;10.37;;;10.20;99.00;;;;;;4991275;28;20046;-80
2021/10/18 01:52:41;;;;;;;16.27;9.93;;;10.20;99.00;;;;;;5005542;28;20041;-78
2021/10/18 01:55:26;;;;;;;13.93;9.95;;;10.20;99.00;;;;;;5005900;28;20034;-81
2021/10/18 01:58:14;;;;;;;12.23;9.60;;;10.20;99.10;;;;;;5004632;28;20053;-80
2021/10/18 02:00:59;;;;;;;11.70;9.35;;;10.10;99.10;;;;;;5006973;28;20053;-78
2021/10/18 02:03:46;;;;;;;12.02;8.95;;;10.20;98.90;;;;;;5008375;28;20060;-80
2021/10/18 02:06:31;;;;;;;15.98;10.00;;;10.20;98.80;;;;;;5008046;28;20098;-79
2021/10/18 02:09:15;;;;;;;11.07;9.35;;;10.20;98.80;;;;;;5000599;28;20053;-78
2021/10/18 02:11:59;;;;;;;15.90;10.80;;;10.20;98.80;;;;;;5006017;28;20046;-79
2021/10/18 02:14:43;;;;;;;13.18;9.27;;;10.10;98.90;;;;;;4995389;28;20065;-77
2021/10/18 02:17:27;;;;;;;12.50;9.67;;;10.20;99.00;;;;;;5008920;28;20401;-79
2021/10/18 02:20:13;;;;;;;12.53;9.20;;;10.20;99.20;;;;;;5008471;28;20041;-79
2021/10/18 02:23:00;;;;;;;12.48;9.23;;;10.20;99.10;;;;;;5008023;28;20041;-79
2021/10/18 02:25:45;;;;;;;12.25;8.82;;;10.30;99.30;;;;;;5007230;28;20057;-78
2021/10/18 02:28:29;;;;;;;12.05;9.43;;;10.30;98.70;;;;;;5005013;28;20038;-79
2021/10/18 02:31:13;;;;;;;14.73;9.65;;;10.30;98.80;;;;;;5006748;28;20045;-79
2021/10/18 02:33:57;;;;;;;12.03;8.27;;;10.30;98.80;;;;;;5008107;28;20103;-79
2021/10/18 02:36:41;;;;;;;12.35;8.98;;;10.40;98.90;;;;;;5005940;28;20041;-79
2021/10/18 02:39:25;;;;;;;14.90;9.50;;;10.60;99.00;;;;;;5006102;28;20034;-77
2021/10/18 02:42:09;;;;;;;10.67;8.70;;;10.60;98.80;;;;;;5006454;28;20326;-78
2021/10/18 02:44:53;;;;;;;13.77;9.32;;;10.50;99.00;;;;;;5005784;28;20528;-78
2021/10/18 02:47:37;;;;;;;12.30;9.10;;;10.40;99.20;;;;;;5005932;28;20130;-79
2021/10/18 02:50:22;;;;;;;12.05;9.10;;;10.40;99.30;;;;;;5005122;28;20061;-77
2021/10/18 02:53:06;;;;;;;12.98;9.00;;;10.40;99.30;;;;;;5009209;28;20126;-77
2021/10/18 02:55:50;;;;;;;10.38;8.43;;;10.40;99.00;;;;;;5010402;28;20049;-78
2021/10/18 02:58:36;;;;;;;13.05;8.60;;;10.40;99.10;;;;;;4998429;28;20045;-76
2021/10/18 03:01:21;;;;;;;12.65;9.05;;;10.40;98.90;;;;;;5005863;28;20637;-81
2021/10/18 03:04:05;;;;;;;13.90;8.80;;;10.40;99.00;;;;;;5006809;28;20045;-81
2021/10/18 03:06:49;;;;;;;13.50;8.35;;;10.40;98.60;;;;;;4995659;28;20292;-80
2021/10/18 03:09:33;;;;;;;13.13;9.80;;;10.30;98.70;;;;;;4991440;28;20088;-80
2021/10/18 03:12:17;;;;;;;15.13;9.40;;;10.30;98.70;;;;;;5004785;28;20533;-80
2021/10/18 03:15:03;;;;;;;16.45;9.60;;;10.10;99.40;;;;;;5003980;28;20069;-80
2021/10/18 03:17:47;;;;;;;11.15;8.73;;;10.10;99.10;;;;;;5005388;28;20088;-79
2021/10/18 03:20:31;;;;;;;14.43;9.33;;;10.00;99.30;;;;;;5005469;28;20042;-79
2021/10/18 03:23:16;;;;;;;14.35;9.25;;;9.90;99.30;;;;;;5004122;28;20037;-79
2021/10/18 03:26:00;;;;;;;11.57;9.15;;;10.00;99.20;;;;;;5012861;28;20100;-81
2021/10/18 03:28:45;;;;;;;13.15;9.18;;;10.10;99.20;;;;;;4992994;28;20040;-80
2021/10/18 03:31:29;;;;;;;12.63;9.07;;;10.10;99.30;;;;;;5023972;28;20484;-80
2021/10/18 03:34:13;;;;;;;12.98;8.68;;;10.10;99.10;;;;;;5008289;28;20056;-80
2021/10/18 03:36:57;;;;;;;12.23;9.10;;;10.20;98.90;;;;;;4995657;28;20096;-79
2021/10/18 03:39:41;;;;;;;15.07;9.80;;;10.20;99.00;;;;;;4995422;28;20037;-80
2021/10/18 03:42:25;;;;;;;10.95;8.80;;;10.10;99.30;;;;;;5014733;28;20041;-79
2021/10/18 03:45:11;;;;;;;14.25;9.40;;;10.00;99.20;;;;;;5029223;28;20048;-81
2021/10/18 03:47:57;;;;;;;13.32;10.25;;;10.10;99.10;;;;;;5009966;28;20092;-79
2021/10/18 03:50:42;;;;;;;16.90;10.35;;;10.10;99.20;;;;;;5012185;28;20037;-78
2021/10/18 03:53:26;;;;;;;21.77;11.75;;;10.10;99.10;;;;;;5013175;28;20036;-77
2021/10/18 03:56:11;;;;;;;14.88;10.23;;;10.20;99.30;;;;;;4997438;28;20567;-77
2021/10/18 03:58:56;;;;;;;14.50;9.57;;;10.20;99.20;;;;;;5012292;28;20084;-79
2021/10/18 04:01:41;;;;;;;14.65;9.55;;;10.20;99.10;;;;;;5010001;28;20397;-80
2021/10/18 04:04:25;;;;;;;14.23;9.85;;;10.10;99.20;;;;;;4995025;28;20045;-79
2021/10/18 04:07:10;;;;;;;14.05;10.30;;;10.10;99.10;;;;;;4995034;28;20069;-80
2021/10/18 04:09:54;;;;;;;12.48;9.95;;;10.10;99.30;;;;;;4995499;28;20049;-81
2021/10/18 04:12:38;;;;;;;16.08;10.00;;;10.00;99.50;;;;;;4981736;28;20044;-80
2021/10/18 04:15:23;;;;;;;15.07;10.43;;;10.00;99.50;;;;;;4998017;28;20045;-78
2021/10/18 04:18:07;;;;;;;14.65;9.98;;;10.00;99.40;;;;;;4996256;28;20090;-81
2021/10/18 04:20:52;;;;;;;14.75;11.32;;;10.00;99.40;;;;;;4995196;28;20137;-79
2021/10/18 04:23:36;;;;;;;12.63;10.25;;;10.00;99.40;;;;;;4994170;28;20041;-80
2021/10/18 04:26:20;;;;;;;16.55;11.45;;;10.10;99.40;;;;;;5000127;28;20056;-79
2021/10/18 04:29:06;;;;;;;15.02;11.10;;;10.10;99.20;;;;;;4988968;28;20029;-79
2021/10/18 04:31:56;;;;;;;17.42;10.68;;;10.20;99.10;;;;;;5012681;28;20108;-79
2021/10/18 04:34:40;;;;;;;21.35;11.35;;;10.20;98.80;;;;;;4981145;28;20410;-80
2021/10/18 04:37:24;;;;;;;16.17;10.88;;;10.20;98.90;;;;;;4995329;28;20053;-79
2021/10/18 04:40:09;;;;;;;15.55;11.23;;;10.20;98.90;;;;;;4992444;28;20065;-78
2021/10/18 04:42:53;;;;;;;15.05;10.77;;;10.20;98.90;;;;;;4993552;28;20048;-79
2021/10/18 04:45:40;;;;;;;16.35;10.75;;;10.10;99.00;;;;;;4992417;28;20065;-79
2021/10/18 04:48:24;;;;;;;15.43;11.27;;;10.10;99.10;;;;;;4981657;28;20066;-77
2021/10/18 04:51:08;;;;;;;19.07;10.47;;;10.10;99.20;;;;;;4995730;28;20053;-79
2021/10/18 04:53:52;;;;;;;20.92;11.60;;;10.10;99.20;;;;;;4995248;28;20066;-79
2021/10/18 04:56:36;;;;;;;15.40;11.25;;;10.10;99.20;;;;;;4999280;28;20041;-78
2021/10/18 04:59:20;;;;;;;17.80;10.82;;;10.10;99.30;;;;;;4997496;28;20045;-81
2021/10/18 05:02:05;;;;;;;14.02;11.85;;;10.10;99.40;;;;;;4992549;28;20053;-80
2021/10/18 05:04:49;;;;;;;18.95;11.25;;;10.00;99.50;;;;;;4979612;28;20044;-78
2021/10/18 05:07:33;;;;;;;21.00;12.23;;;9.90;99.50;;;;;;4992844;28;20050;-80
2021/10/18 05:10:17;;;;;;;18.25;11.18;;;10.00;99.60;;;;;;4990420;28;20038;-80
2021/10/18 05:13:01;;;;;;;15.40;11.57;;;10.00;99.60;;;;;;4980764;28;20118;-80
2021/10/18 05:15:48;;;;;;;20.98;11.32;;;9.90;99.80;;;;;;4988784;28;20037;-79
2021/10/18 05:18:33;;;;;;;15.23;10.95;;;9.90;99.80;;;;;;4988475;28;20065;-80
2021/10/18 05:21:17;;;;;;;18.25;11.73;;;9.70;99.90;;;;;;4988040;28;20118;-78
2021/10/18 05:24:01;;;;;;;14.15;11.40;;;9.80;99.90;;;;;;4975266;28;20119;-80
2021/10/18 05:26:45;;;;;;;16.38;11.77;;;9.70;99.90;;;;;;4977406;28;20045;-79
2021/10/18 05:29:32;;;;;;;17.88;12.93;;;9.70;99.90;;;;;;4992346;28;20049;-81
2021/10/18 05:32:16;;;;;;;16.95;12.32;;;9.60;99.90;;;;;;4994885;28;20041;-79
2021/10/18 05:35:05;;;;;;;23.30;13.60;;;9.50;99.90;;;;;;4996050;28;20034;-80
2021/10/18 05:37:53;;;;;;;24.45;14.85;;;9.50;99.90;;;;;;4982635;28;20041;-80
2021/10/18 05:40:38;;;;;;;16.25;11.45;;;9.50;99.90;;;;;;5010534;28;20080;-78
2021/10/18 05:43:22;;;;;;;15.60;11.07;;;9.50;99.90;;;;;;4993496;28;20049;-77
2021/10/18 05:46:07;;;;;;;16.15;10.88;;;9.40;99.90;;;;;;4983625;28;20042;-78
2021/10/18 05:48:51;;;;;;;15.02;10.75;;;9.40;99.90;;;;;;4998992;28;20038;-78
2021/10/18 05:51:37;;;;;;;15.63;10.40;;;9.30;99.90;;;;;;5000672;28;20073;-79
2021/10/18 05:54:22;;;;;;;15.55;10.95;;;9.20;99.90;;;;;;4985216;28;20177;-79
2021/10/18 05:57:06;;;;;;;19.85;10.77;;;9.20;99.90;;;;;;4980691;28;20042;-79
2021/10/18 05:59:50;;;;;;;17.43;11.50;;;9.10;99.90;;;;;;5019955;28;20052;-80
2021/10/18 06:02:34;;;;;;;16.60;10.93;;;9.00;99.90;;;;;;5032231;28;20045;-80
2021/10/18 06:05:19;;;;;;;19.97;11.57;;;9.00;99.90;;;;;;5016305;28;20045;-80
2021/10/18 06:08:05;;;;;;;24.10;13.38;;;9.00;99.90;;;;;;5030527;28;20052;-81
2021/10/18 06:10:50;;;;;;;18.30;13.38;;;9.10;99.90;;;;;;5032559;28;20045;-79
2021/10/18 06:13:34;;;;;;;15.52;11.63;;;9.10;99.90;;;;;;5016718;28;20036;-79
2021/10/18 06:16:18;;;;;;;14.50;11.97;;;9.20;99.90;;;;;;5046192;28;20079;-78
2021/10/18 06:19:02;;;;;;;32.42;13.63;;;9.20;99.90;;;;;;5016839;28;20279;-79
2021/10/18 06:21:46;;;;;;;21.65;11.73;;;9.20;99.90;;;;;;5014257;28;20564;-80
2021/10/18 06:24:30;;;;;;;17.67;11.87;;;9.20;99.90;;;;;;5029064;28;20059;-79
2021/10/18 06:27:15;;;;;;;84.30;40.70;;;9.20;99.90;;;;;;5016684;28;20045;-80
2021/10/18 06:29:59;;;;;;;27.60;15.55;;;9.20;99.90;;;;;;5013814;28;20044;-79
2021/10/18 06:32:43;;;;;;;16.27;11.40;;;9.40;99.90;;;;;;5014154;28;20064;-80
2021/10/18 06:35:27;;;;;;;16.67;11.50;;;9.40;99.90;;;;;;5014655;28;20061;-79
2021/10/18 06:38:18;;;;;;;16.27;10.10;;;9.40;99.90;;;;;;4996680;28;20076;-80
2021/10/18 06:41:02;;;;;;;15.95;10.98;;;9.40;99.90;;;;;;5025349;28;20060;-80
2021/10/18 06:43:46;;;;;;;12.50;10.82;;;9.50;99.90;;;;;;5012986;28;20401;-80
2021/10/18 06:46:30;;;;;;;12.73;10.80;;;9.50;99.90;;;;;;4996698;28;20073;-79
2021/10/18 06:49:15;;;;;;;17.97;11.23;;;9.50;99.90;;;;;;5010265;28;20069;-80
2021/10/18 06:52:00;;;;;;;14.82;11.32;;;9.50;99.80;;;;;;5009237;28;20049;-81
2021/10/18 06:54:44;;;;;;;16.00;11.38;;;9.50;99.70;;;;;;5011160;28;20077;-78
2021/10/18 06:57:28;;;;;;;19.02;11.98;;;9.60;99.50;;;;;;5008893;28;20044;-78
2021/10/18 07:00:13;;;;;;;20.70;11.98;;;9.50;99.60;;;;;;4994603;28;20045;-78
2021/10/18 07:02:57;;;;;;;13.73;11.25;;;9.50;99.50;;;;;;4995391;28;20551;-80
2021/10/18 07:05:41;;;;;;;15.27;11.43;;;9.40;99.50;;;;;;4995619;28;20417;-82
2021/10/18 07:08:25;;;;;;;20.42;10.85;;;9.50;99.70;;;;;;4994890;28;20507;-81
2021/10/18 07:11:09;;;;;;;16.13;11.77;;;9.50;99.60;;;;;;4996697;28;20057;-82
2021/10/18 07:13:54;;;;;;;16.13;11.82;;;9.60;99.40;;;;;;4994070;28;20040;-83
2021/10/18 07:16:38;;;;;;;15.18;11.60;;;9.60;99.20;;;;;;4997979;28;20068;-82
2021/10/18 07:19:25;;;;;;;16.30;11.90;;;9.60;99.50;;;;;;5028188;28;20033;-82
2021/10/18 07:22:09;;;;;;;29.90;12.35;;;9.70;99.00;;;;;;5026078;28;20477;-79
2021/10/18 07:24:54;;;;;;;18.10;12.32;;;9.90;98.90;;;;;;5011668;28;20041;-78
2021/10/18 07:27:39;;;;;;;;;;;9.60;99.30;;;;;;4994781;28;20030;-82
2021/10/18 07:30:23;;;;;;;19.63;12.10;;;9.60;99.40;;;;;;5009050;28;19917;-81
2021/10/18 07:33:08;;;;;;;16.80;12.00;;;9.70;99.30;;;;;;4991557;28;20098;-82
2021/10/18 07:35:54;;;;;;;17.38;12.20;;;9.70;99.30;;;;;;4991298;28;20054;-82
2021/10/18 07:38:39;;;;;;;16.95;12.75;;;9.90;99.30;;;;;;4990470;28;20069;-81
2021/10/18 07:41:23;;;;;;;14.82;10.93;;;9.90;99.10;;;;;;5006556;28;20092;-81
2021/10/18 07:44:07;;;;;;;17.07;11.67;;;10.10;98.70;;;;;;4993631;28;20560;-81
2021/10/18 07:46:55;;;;;;;16.30;12.23;;;10.00;98.60;;;;;;4992143;28;20049;-81
2021/10/18 07:49:42;;;;;;;16.65;13.05;;;10.10;98.80;;;;;;4977938;28;20045;-81
2021/10/18 07:52:26;;;;;;;17.88;12.55;;;10.10;98.50;;;;;;4992484;28;20057;-80
2021/10/18 07:55:18;;;;;;;14.25;11.20;;;10.10;98.80;;;;;;4989057;28;20092;-82
2021/10/18 07:58:03;;;;;;;16.58;12.10;;;10.20;98.60;;;;;;5004312;28;20094;-83
2021/10/18 08:00:48;;;;;;;17.67;12.75;;;10.30;98.50;;;;;;5003450;28;20037;-83
2021/10/18 08:03:32;;;;;;;18.92;11.57;;;10.20;98.90;;;;;;4970164;28;20556;-82
2021/10/18 08:06:16;;;;;;;21.27;12.57;;;10.30;98.40;;;;;;4985264;28;20117;-83
2021/10/18 08:09:01;;;;;;;16.67;12.27;;;10.40;98.70;;;;;;5000170;28;20101;-80
2021/10/18 08:11:47;;;;;;;16.23;12.07;;;10.50;98.00;;;;;;4973287;28;20625;-84
2021/10/18 08:14:32;;;;;;;17.40;11.35;;;10.70;97.70;;;;;;4989331;28;20036;-81
2021/10/18 08:17:15;;;;;;;17.85;11.50;;;10.80;97.60;;;;;;4991040;28;20090;-81
2021/10/18 08:20:00;;;;;;;14.32;9.88;;;10.90;97.40;;;;;;4977242;28;20449;-80
2021/10/18 08:22:44;;;;;;;15.65;10.30;;;11.00;97.10;;;;;;4989639;28;20045;-81
2021/10/18 08:25:29;;;;;;;19.30;11.10;;;11.10;96.80;;;;;;4998473;28;20033;-81
2021/10/18 08:28:14;;;;;;;14.40;9.95;;;11.20;96.30;;;;;;5017810;28;20069;-80
2021/10/18 08:30:58;;;;;;;19.52;10.82;;;11.20;96.40;;;;;;5003874;28;20444;-82
2021/10/18 08:33:46;;;;;;;18.15;10.68;;;11.20;96.50;;;;;;4994014;28;20044;-81
2021/10/18 08:36:35;;;;;;;18.38;10.52;;;11.30;96.20;;;;;;5009681;28;20084;-80
2021/10/18 08:42:26;;;;;;;19.52;10.30;;;11.60;95.70;;;;;;5021588;28;20032;-81
2021/10/18 08:45:11;;;;;;;16.55;9.85;;;11.60;95.80;;;;;;5022061;28;20164;-78
2021/10/18 08:47:56;;;;;;;13.40;10.40;;;11.70;95.70;;;;;;4995088;28;20044;-82
2021/10/18 08:50:41;;;;;;;26.50;13.45;;;11.70;95.80;;;;;;5006483;28;20084;-80
2021/10/18 08:53:25;;;;;;;18.15;14.00;;;11.80;95.90;;;;;;5026907;28;20055;-79
2021/10/18 08:56:09;;;;;;;14.90;10.90;;;11.90;95.40;;;;;;5024395;28;20041;-82
2021/10/18 08:58:53;;;;;;;26.33;11.20;;;11.90;95.40;;;;;;5039197;28;20039;-80
2021/10/18 09:01:46;;;;;;;16.98;10.18;;;12.00;95.00;;;;;;5040021;28;20451;-82
2021/10/18 09:04:38;;;;;;;17.98;9.90;;;12.00;95.00;;;;;;5012782;28;20047;-81
2021/10/18 09:07:22;;;;;;;14.57;11.20;;;12.20;95.00;;;;;;5028066;28;20063;-80
2021/10/18 09:10:11;;;;;;;22.52;11.95;;;12.20;94.60;;;;;;5029778;28;20033;-80
2021/10/18 09:13:11;;;;;;;19.27;9.80;;;12.00;95.00;;;;;;5016131;28;20041;-81
2021/10/18 09:15:55;;;;;;;15.77;9.55;;;12.20;95.00;;;;;;5028920;28;20090;-81
2021/10/18 09:18:40;;;;;;;14.90;9.10;;;12.20;94.80;;;;;;5025095;28;20032;-83
2021/10/18 09:21:36;;;;;;;16.90;8.73;;;12.20;94.40;;;;;;5022811;28;20036;-82
2021/10/18 09:24:29;;;;;;;12.23;8.50;;;12.20;94.40;;;;;;5020332;28;20111;-81
2021/10/18 09:27:18;;;;;;;13.82;8.00;;;12.20;94.50;;;;;;5024542;28;20025;-81
2021/10/18 09:30:07;;;;;;;58.25;13.13;;;12.20;94.80;;;;;;4997900;28;20049;-81
2021/10/18 09:32:55;;;;;;;14.07;9.32;;;12.40;94.80;;;;;;5002447;28;20168;-80
2021/10/18 09:35:40;;;;;;;18.40;9.85;;;12.60;94.80;;;;;;4975314;28;20118;-79
2021/10/18 09:38:25;;;;;;;19.75;11.45;;;12.60;95.00;;;;;;5020901;28;20080;-81
2021/10/18 09:41:09;;;;;;;12.88;9.50;;;12.80;96.10;;;;;;5010434;28;20389;-78
2021/10/18 09:43:58;;;;;;;14.98;11.27;;;13.00;95.00;;;;;;5001876;28;20519;-80
2021/10/18 10:56:44;;;;;;;12.15;6.03;;;14.90;90.00;;;;;;5028888;28;20070;-79
2021/10/18 10:59:30;;;;;;;13.35;6.40;;;14.90;90.00;;;;;;5014615;28;20041;-85
2021/10/18 11:02:29;;;;;;;9.50;5.68;;;14.80;86.20;;;;;;5015493;28;20109;-83
2021/10/18 11:05:27;;;;;;;9.90;5.72;;;14.60;88.00;;;;;;5012025;28;20037;-77
2021/10/18 11:08:29;;;;;;;7.25;5.93;;;14.70;88.20;;;;;;5027197;28;20067;-80
2021/10/18 11:11:18;;;;;;;7.05;5.18;;;14.70;86.90;;;;;;5008608;28;20037;-81
2021/10/18 11:14:01;;;;;;;7.82;5.80;;;14.60;86.80;;;;;;5009911;28;20037;-79
2021/10/18 11:16:46;;;;;;;7.87;5.73;;;14.80;87.70;;;;;;4997495;28;20044;-82
2021/10/18 11:19:30;;;;;;;9.02;5.32;;;15.00;85.60;;;;;;4998687;28;20063;-83
2021/10/18 11:22:25;;;;;;;10.15;5.82;;;15.20;84.00;;;;;;5012617;28;20061;-83
2021/10/18 11:25:31;;;;;;;10.85;6.00;;;15.50;83.50;;;;;;5028488;28;20089;-83
2021/10/18 11:28:15;;;;;;;9.45;4.95;;;15.50;83.30;;;;;;5000178;28;20040;-78
2021/10/18 11:30:59;;;;;;;10.10;5.60;;;15.40;86.30;;;;;;5026616;28;20084;-84
2021/10/18 11:33:59;;;;;;;8.57;5.97;;;15.30;85.20;;;;;;5011878;28;20049;-80
2021/10/18 11:36:47;;;;;;;13.93;5.57;;;15.40;84.40;;;;;;5017142;28;20256;-81
2021/10/18 11:39:32;;;;;;;7.72;5.18;;;15.60;83.70;;;;;;5010604;28;20607;-80
2021/10/18 11:42:17;;;;;;;11.20;5.38;;;15.60;83.90;;;;;;5010455;28;20037;-79
2021/10/18 11:45:03;;;;;;;8.13;5.28;;;15.60;82.70;;;;;;5009271;28;20045;-82
2021/10/18 11:47:50;;;;;;;7.38;5.43;;;15.60;82.60;;;;;;5009794;28;20529;-82
2021/10/18 11:50:36;;;;;;;10.00;5.93;;;15.60;82.00;;;;;;5017874;28;20397;-83
2021/10/18 11:53:26;;;;;;;8.35;5.35;;;15.60;82.30;;;;;;5018705;28;20041;-83
2021/10/18 11:56:18;;;;;;;9.35;4.95;;;15.40;83.70;;;;;;5011876;28;20029;-83
2021/10/18 11:59:05;;;;;;;8.38;4.80;;;15.40;82.30;;;;;;4994668;28;20076;-84
2021/10/18 12:01:49;;;;;;;7.07;4.22;;;15.50;80.50;;;;;;4992950;28;20061;-84
2021/10/18 12:04:54;;;;;;;9.97;4.80;;;15.50;80.70;;;;;;5005901;28;20456;-84
2021/10/18 12:07:44;;;;;;;4.80;4.03;;;15.40;80.00;;;;;;5007038;28;20037;-84
2021/10/18 12:10:29;;;;;;;5.50;4.32;;;15.30;80.40;;;;;;5005972;28;20106;-82
2021/10/18 12:13:15;;;;;;;7.75;4.55;;;15.50;79.30;;;;;;5005204;28;20115;-82
2021/10/18 12:16:08;;;;;;;6.90;4.15;;;15.60;79.90;;;;;;5003187;28;20156;-82
2021/10/18 12:19:00;;;;;;;6.82;3.88;;;15.70;80.50;;;;;;5003141;28;20030;-86
2021/10/18 12:21:48;;;;;;;4.97;3.80;;;15.80;79.60;;;;;;5002878;28;20095;-80
2021/10/18 12:24:34;;;;;;;7.88;4.13;;;15.80;78.90;;;;;;5003576;28;20041;-79
2021/10/18 12:27:26;;;;;;;10.63;4.97;;;15.80;79.80;;;;;;5020291;28;20068;-78
2021/10/18 12:30:40;;;;;;;4.55;3.85;;;16.00;79.90;;;;;;5010324;28;20555;-79
2021/10/18 12:33:39;;;;;;;6.20;4.30;;;16.10;79.40;;;;;;5025119;28;20121;-78
2021/10/18 12:36:24;;;;;;;7.10;4.63;;;16.20;80.00;;;;;;5009211;28;20049;-79
2021/10/18 12:39:08;;;;;;;7.13;4.60;;;16.30;80.40;;;;;;5008520;28;20097;-79
2021/10/18 12:41:52;;;;;;;10.77;4.60;;;16.60;79.80;;;;;;5022022;28;20713;-79
2021/10/18 12:45:01;;;;;;;8.00;4.53;;;16.50;78.70;;;;;;5004714;28;20033;-78
2021/10/18 12:47:50;;;;;;;6.90;4.22;;;16.30;78.70;;;;;;4996246;28;20065;-77
2021/10/18 12:50:38;;;;;;;7.07;4.50;;;16.20;79.50;;;;;;5027612;28;20037;-80
2021/10/18 12:53:33;;;;;;;7.07;4.35;;;16.20;79.90;;;;;;4983183;28;20076;-77
2021/10/18 12:56:23;;;;;;;5.32;3.85;;;16.20;80.20;;;;;;4984488;28;20056;-76
2021/10/18 12:59:08;;;;;;;5.15;3.97;;;16.40;79.80;;;;;;5012193;28;20529;-76
2021/10/18 13:02:15;;;;;;;6.65;3.80;;;16.40;78.60;;;;;;5026502;28;20505;-77
2021/10/18 13:05:16;;;;;;;6.03;3.72;;;16.40;78.20;;;;;;5010329;28;20045;-77
2021/10/18 13:08:01;;;;;;;5.88;3.95;;;16.50;77.30;;;;;;5009385;28;20105;-76
2021/10/18 13:10:49;;;;;;;8.15;3.72;;;16.50;78.20;;;;;;5024442;28;20065;-76
2021/10/18 13:13:33;;;;;;;19.77;4.63;;;16.70;77.60;;;;;;5024189;28;20036;-77
2021/10/18 13:16:17;;;;;;;6.32;3.60;;;16.80;77.30;;;;;;5026910;28;20513;-78
2021/10/18 13:19:01;;;;;;;16.23;4.00;;;16.90;77.50;;;;;;5028703;28;20041;-79
2021/10/18 13:21:46;;;;;;;6.93;3.85;;;17.00;77.50;;;;;;4999342;28;20256;-78
2021/10/18 13:24:30;;;;;;;5.80;3.80;;;17.00;77.40;;;;;;5027609;28;20156;-79
2021/10/18 13:27:14;;;;;;;;;;;17.30;77.10;;;;;;5000088;28;20065;-79
2021/10/18 13:30:02;;;;;;;7.07;3.65;;;17.40;77.00;;;;;;5009406;28;19912;-76
2021/10/18 13:32:50;;;;;;;8.38;4.38;;;17.10;76.90;;;;;;4993386;28;20088;-77
2021/10/18 13:35:35;;;;;;;5.95;4.10;;;17.00;77.70;;;;;;4993421;28;20071;-76
2021/10/18 13:38:19;;;;;;;5.82;3.95;;;17.00;77.60;;;;;;4992870;28;20084;-77
2021/10/18 13:41:08;;;;;;;6.10;4.15;;;17.10;77.60;;;;;;4993442;28;20066;-77
2021/10/18 13:43:52;;;;;;;5.60;4.30;;;16.90;78.50;;;;;;5006298;28;20172;-77
2021/10/18 13:46:40;;;;;;;7.95;4.60;;;16.70;78.60;;;;;;4995381;28;20038;-76
2021/10/18 13:49:24;;;;;;;7.07;4.57;;;16.50;77.90;;;;;;4995300;28;20061;-76
2021/10/18 13:52:09;;;;;;;6.35;4.50;;;16.40;79.10;;;;;;4992329;28;20085;-76
2021/10/18 13:54:53;;;;;;;6.68;4.22;;;16.40;79.40;;;;;;5006066;28;20106;-75
2021/10/18 13:57:38;;;;;;;8.07;4.50;;;16.30;79.50;;;;;;5008185;28;20525;-76
2021/10/18 14:00:23;;;;;;;7.32;4.53;;;16.30;80.20;;;;;;4992349;28;20037;-77
2021/10/18 14:03:07;;;;;;;5.80;4.75;;;16.30;80.10;;;;;;4992133;28;20062;-81
2021/10/18 14:05:51;;;;;;;7.85;5.20;;;16.40;78.90;;;;;;5008349;28;20049;-78
2021/10/18 14:08:36;;;;;;;6.15;4.40;;;16.40;79.10;;;;;;4992740;28;20465;-76
2021/10/18 14:11:20;;;;;;;10.50;5.20;;;16.30;79.10;;;;;;4977913;28;20064;-76
2021/10/18 14:14:05;;;;;;;5.35;4.25;;;16.40;79.00;;;;;;5007394;28;20057;-77
2021/10/18 14:16:49;;;;;;;6.05;4.72;;;16.70;78.40;;;;;;4993666;28;20448;-76
2021/10/18 14:19:36;;;;;;;6.13;4.60;;;16.60;78.70;;;;;;5009952;28;20062;-79
2021/10/18 14:22:20;;;;;;;7.03;4.70;;;16.50;78.90;;;;;;4980575;28;20041;-80
2021/10/18 14:25:07;;;;;;;6.10;4.60;;;16.40;78.80;;;;;;4992930;28;20041;-80
2021/10/18 14:27:51;;;;;;;5.90;4.25;;;16.20;79.80;;;;;;4997690;28;20037;-76
2021/10/18 14:30:37;;;;;;;6.97;4.20;;;16.10;80.20;;;;;;4999866;28;20106;-82
2021/10/18 14:33:21;;;;;;;5.13;4.30;;;16.00;80.70;;;;;;4985919;28;20052;-82
2021/10/18 14:36:05;;;;;;;5.63;4.13;;;16.00;81.20;;;;;;5028360;28;20133;-79
2021/10/18 14:38:53;;;;;;;6.57;4.93;;;15.90;80.80;;;;;;5014779;28;20045;-80
2021/10/18 14:41:37;;;;;;;7.22;4.25;;;15.90;81.80;;;;;;5000548;28;20033;-80
2021/10/18 14:44:21;;;;;;;5.95;4.30;;;15.70;82.00;;;;;;5013592;28;20072;-80
2021/10/18 14:47:06;;;;;;;;;;;15.70;82.40;;;;;;5001576;28;20041;-81
2021/10/18 14:49:50;;;;;;;8.02;4.95;;;15.70;82.40;;;;;;4998949;28;19913;-80
2021/10/18 14:52:36;;;;;;;6.40;4.90;;;15.60;82.60;;;;;;4982315;28;20037;-79
2021/10/18 14:55:21;;;;;;;7.72;4.68;;;15.50;83.20;;;;;;4994422;28;20069;-80
2021/10/18 14:58:07;;;;;;;6.50;4.53;;;15.40;83.50;;;;;;4980863;28;20080;-82
2021/10/18 15:00:51;;;;;;;7.53;4.57;;;15.50;83.40;;;;;;4993816;28;20061;-81
2021/10/18 15:03:37;;;;;;;5.93;4.57;;;15.50;83.80;;;;;;4979184;28;20397;-84
2021/10/18 15:06:21;;;;;;;8.57;4.95;;;15.50;84.00;;;;;;5020109;28;20045;-80
2021/10/18 15:09:05;;;;;;;18.73;11.27;;;15.50;83.90;;;;;;5025575;28;20064;-82
2021/10/18 15:11:50;;;;;;;7.05;5.10;;;15.40;84.60;;;;;;5025614;28;20044;-81
2021/10/18 15:14:34;;;;;;;8.10;5.85;;;15.50;85.00;;;;;;4992601;28;20044;-84
2021/10/18 15:17:18;;;;;;;10.37;5.40;;;15.60;85.60;;;;;;5012926;28;20068;-82
2021/10/18 15:20:04;;;;;;;11.32;5.15;;;15.60;87.60;;;;;;5012352;28;20037;-82
2021/10/18 15:22:48;;;;;;;13.73;6.13;;;15.70;86.00;;;;;;5027668;28;20128;-84
2021/10/18 15:25:32;;;;;;;11.63;6.13;;;15.70;86.00;;;;;;5025190;28;20445;-80